Terminal Aerodrome Forecast
Issued by NWS

Home | Current Version | Previous Version | Text Only | Print | Product List | Glossary On
Versions: 1 2 3 4 5 6 7 8 9 10 11 12 13 14
000
FTUS42 KMLB 092334
TAFSFB
TAF
KSFB 092334Z 1000/1024 26012G18KT P6SM BKN050
     FM100300 29011KT P6SM FEW050
     FM101400 30014G22KT P6SM SKC=

USA.gov is the U.S. government's official web portal to all federal, state and local government web resources and services.